createdAt,value
2018-03-14T00:00:41.335Z,75.15
2018-03-14T00:02:34.315Z,75.43
2018-03-14T00:03:34.378Z,75.15
2018-03-14T00:05:27.368Z,75.53
2018-03-14T00:06:27.406Z,75.15
2018-03-14T00:08:20.392Z,74.49
2018-03-14T00:09:20.453Z,74.39
2018-03-14T00:11:13.460Z,74.58
2018-03-14T00:12:13.496Z,74.39
2018-03-14T00:14:06.509Z,73.44
2018-03-14T00:15:06.536Z,73.72
2018-03-14T00:16:59.523Z,74.58
2018-03-14T00:17:59.584Z,74.39
2018-03-14T00:19:52.585Z,74.68
2018-03-14T00:20:52.629Z,74.49
2018-03-14T00:22:46.118Z,75.15
2018-03-14T00:23:46.174Z,75.24
2018-03-14T00:25:39.180Z,76.67
2018-03-14T00:26:39.216Z,76.67
2018-03-14T00:28:32.201Z,77.52
2018-03-14T00:29:32.255Z,77.71
2018-03-14T00:31:25.255Z,77.43
2018-03-14T00:32:25.294Z,77.62
2018-03-14T00:34:18.277Z,78.28
2018-03-14T00:35:18.335Z,78.28
2018-03-14T00:37:11.383Z,78.28
2018-03-14T00:38:11.379Z,78.47
2018-03-14T00:40:04.371Z,78.75
2018-03-14T00:41:04.430Z,78.38
2018-03-14T00:42:57.433Z,77.33
2018-03-14T00:43:57.478Z,78.00
2018-03-14T00:45:50.460Z,78.28
2018-03-14T00:46:50.514Z,78.56
2018-03-14T00:48:43.542Z,78.28
2018-03-14T00:49:43.560Z,78.38
2018-03-14T00:51:36.559Z,78.47
2018-03-14T00:52:36.617Z,78.38
2018-03-14T00:54:29.609Z,78.38
2018-03-14T00:55:29.631Z,78.75
2018-03-14T00:57:22.645Z,78.56
2018-03-14T00:58:22.663Z,78.38
2018-03-14T01:00:15.648Z,78.38
2018-03-14T01:01:15.705Z,78.75
2018-03-14T01:03:08.710Z,78.47
2018-03-14T01:04:08.747Z,77.81
2018-03-14T01:06:01.726Z,78.00
2018-03-14T01:07:01.783Z,78.19
2018-03-14T01:08:54.791Z,78.66
2018-03-14T01:09:54.829Z,78.95
2018-03-14T01:11:47.806Z,78.47
2018-03-14T01:12:47.863Z,78.38
2018-03-14T01:14:40.867Z,77.81
2018-03-14T01:15:40.906Z,78.19
2018-03-14T01:17:33.907Z,78.28
2018-03-14T01:18:33.946Z,78.09
2018-03-14T01:20:26.943Z,78.47
2018-03-14T01:21:26.980Z,78.38
2018-03-14T01:23:20.506Z,78.38
2018-03-14T01:24:20.530Z,78.95
2018-03-14T01:26:13.515Z,79.80
2018-03-14T01:27:13.575Z,78.75
2018-03-14T01:29:06.591Z,78.75
2018-03-14T01:30:06.605Z,79.80
2018-03-14T01:31:59.585Z,80.08
2018-03-14T01:32:59.640Z,80.18
2018-03-14T01:34:52.638Z,80.27
2018-03-14T01:35:52.677Z,80.37
2018-03-14T01:37:45.659Z,80.18
2018-03-14T01:38:45.711Z,80.94
2018-03-14T01:40:38.708Z,81.32
2018-03-14T01:41:38.747Z,81.23
2018-03-14T01:43:31.724Z,81.23
2018-03-14T01:44:31.782Z,81.23
2018-03-14T01:46:24.795Z,81.04
2018-03-14T01:47:24.833Z,81.04
2018-03-14T01:49:17.813Z,81.23
2018-03-14T01:50:17.871Z,80.75
2018-03-14T01:52:10.872Z,80.75
2018-03-14T01:53:10.910Z,81.04
2018-03-14T01:55:03.931Z,80.84
2018-03-14T01:56:03.950Z,80.37
2018-03-14T01:57:56.927Z,79.71
2018-03-14T01:58:56.985Z,79.71
2018-03-14T02:00:50.016Z,79.80
2018-03-14T02:01:50.019Z,79.80
2018-03-14T02:03:43.003Z,79.61
2018-03-14T02:04:43.061Z,80.08
2018-03-14T02:06:36.059Z,79.61
2018-03-14T02:07:36.096Z,79.80
2018-03-14T02:09:29.076Z,80.08
2018-03-14T02:10:29.129Z,80.08
2018-03-14T02:12:22.126Z,79.80
2018-03-14T02:13:22.162Z,79.80
2018-03-14T02:15:15.159Z,80.27
2018-03-14T02:16:15.198Z,82.74
2018-03-14T02:18:08.194Z,82.65
2018-03-14T02:19:08.231Z,82.55
2018-03-14T02:21:01.231Z,83.40
2018-03-14T02:22:01.266Z,83.03
2018-03-14T02:23:54.244Z,84.07
2018-03-14T02:24:54.301Z,83.97
2018-03-14T02:26:47.320Z,84.55
2018-03-14T02:27:47.335Z,83.97
2018-03-14T02:29:40.323Z,84.45
2018-03-14T02:30:40.397Z,84.64
2018-03-14T02:32:33.379Z,83.78
2018-03-14T02:33:33.416Z,83.12
2018-03-14T02:35:26.400Z,82.17
2018-03-14T02:36:26.457Z,82.36
2018-03-14T02:38:19.455Z,82.46
2018-03-14T02:39:19.492Z,82.74
2018-03-14T02:41:12.470Z,82.46
2018-03-14T02:42:12.525Z,81.98
2018-03-14T02:44:05.525Z,82.36
2018-03-14T02:45:05.580Z,82.65
2018-03-14T02:46:58.538Z,82.55
2018-03-14T02:47:58.595Z,82.36
2018-03-14T02:49:51.600Z,82.17
2018-03-14T02:50:51.637Z,82.55
2018-03-14T02:52:44.635Z,82.17
2018-03-14T02:53:44.672Z,82.08
2018-03-14T02:55:37.655Z,82.55
2018-03-14T02:56:37.714Z,83.31
2018-03-14T02:58:30.712Z,82.93
2018-03-14T02:59:30.756Z,82.46
2018-03-14T03:01:23.737Z,82.36
2018-03-14T03:02:23.794Z,82.42
2018-03-14T03:04:16.810Z,82.32
2018-03-14T03:05:16.847Z,82.65
2018-03-14T03:07:09.837Z,82.08
2018-03-14T03:08:09.893Z,82.13
2018-03-14T03:10:02.905Z,82.46
2018-03-14T03:11:02.941Z,81.70
2018-03-14T03:12:55.946Z,81.98
2018-03-14T03:13:55.989Z,82.17
2018-03-14T03:15:48.988Z,81.79
2018-03-14T03:16:49.025Z,81.32
2018-03-14T03:18:42.009Z,80.84
2018-03-14T03:19:42.061Z,80.65
2018-03-14T03:21:35.082Z,80.84
2018-03-14T03:22:35.107Z,80.18
2018-03-14T03:24:28.116Z,80.56
2018-03-14T03:25:28.154Z,80.65
2018-03-14T03:27:21.146Z,80.08
2018-03-14T03:28:21.195Z,80.27
2018-03-14T03:30:14.196Z,79.90
2018-03-14T03:31:14.235Z,79.90
2018-03-14T03:33:07.217Z,80.08
2018-03-14T03:34:07.270Z,79.80
2018-03-14T03:36:00.269Z,80.37
2018-03-14T03:37:00.302Z,80.04
2018-03-14T03:38:53.286Z,79.99
2018-03-14T03:39:53.342Z,79.57
2018-03-14T03:41:46.346Z,79.61
2018-03-14T03:42:46.383Z,79.76
2018-03-14T03:44:39.387Z,79.28
2018-03-14T03:45:39.417Z,79.42
2018-03-14T03:47:32.409Z,78.91
2018-03-14T03:48:32.466Z,79.57
2018-03-14T03:50:25.473Z,79.61
2018-03-14T03:51:25.511Z,79.61
2018-03-14T03:53:18.503Z,79.71
2018-03-14T03:54:18.560Z,79.47
2018-03-14T03:56:11.558Z,79.76
2018-03-14T03:57:11.594Z,80.04
2018-03-14T03:59:04.583Z,79.57
2018-03-14T04:00:04.642Z,79.57
2018-03-14T04:01:57.640Z,79.00
2018-03-14T04:02:57.679Z,78.91
2018-03-14T04:04:50.655Z,78.81
2018-03-14T04:05:50.710Z,78.34
2018-03-14T04:07:44.223Z,78.62
2018-03-14T04:08:44.260Z,78.91
2018-03-14T04:10:37.246Z,78.34
2018-03-14T04:11:37.304Z,78.05
2018-03-14T04:13:30.309Z,78.24
2018-03-14T04:14:30.345Z,78.05
2018-03-14T04:16:23.328Z,78.24
2018-03-14T04:17:23.384Z,78.43
2018-03-14T04:19:16.393Z,78.15
2018-03-14T04:20:16.424Z,78.72
2018-03-14T04:22:09.438Z,79.00
2018-03-14T04:23:09.464Z,79.10
2018-03-14T04:25:02.448Z,79.19
2018-03-14T04:26:02.552Z,79.19
2018-03-14T04:27:55.506Z,78.34
2018-03-14T04:28:55.544Z,78.43
2018-03-14T04:30:48.521Z,78.05
2018-03-14T04:31:48.578Z,77.54
2018-03-14T04:33:41.573Z,77.25
2018-03-14T04:34:41.608Z,76.87
2018-03-14T04:36:34.588Z,76.03
2018-03-14T04:37:34.649Z,75.55
2018-03-14T04:39:27.647Z,75.07
2018-03-14T04:40:27.678Z,75.07
2018-03-14T04:42:20.653Z,74.69
2018-03-14T04:43:20.740Z,74.32
2018-03-14T04:45:13.712Z,74.03
2018-03-14T04:46:13.747Z,73.56
2018-03-14T04:48:06.743Z,73.94
2018-03-14T04:49:06.780Z,74.03
2018-03-14T04:50:59.767Z,73.84
2018-03-14T04:51:59.821Z,73.75
2018-03-14T04:53:52.839Z,73.27
2018-03-14T04:54:52.854Z,73.56
2018-03-14T04:56:45.834Z,73.37
2018-03-14T04:57:45.892Z,73.27
2018-03-14T04:59:38.886Z,73.18
2018-03-14T05:00:38.924Z,72.52
2018-03-14T05:02:31.902Z,72.52
2018-03-14T05:03:31.958Z,72.80
2018-03-14T05:05:24.966Z,72.64
2018-03-14T05:06:25.001Z,73.46
2018-03-14T05:08:18.495Z,74.07
2018-03-14T05:09:18.549Z,73.60
2018-03-14T05:11:11.548Z,74.13
2018-03-14T05:12:11.590Z,74.51
2018-03-14T05:14:04.569Z,75.11
2018-03-14T05:15:04.620Z,75.40
2018-03-14T05:16:57.617Z,75.02
2018-03-14T05:17:57.653Z,74.64
2018-03-14T05:19:50.636Z,75.21
2018-03-14T05:20:50.692Z,75.31
2018-03-14T05:22:43.691Z,75.59
2018-03-14T05:23:43.727Z,75.21
2018-03-14T05:25:36.720Z,75.68
2018-03-14T05:26:36.773Z,75.96
2018-03-14T05:28:29.773Z,75.68
2018-03-14T05:29:29.811Z,75.49
2018-03-14T05:31:22.821Z,75.68
2018-03-14T05:32:22.844Z,75.40
2018-03-14T05:34:15.834Z,75.59
2018-03-14T05:35:15.889Z,75.49
2018-03-14T05:37:08.889Z,76.25
2018-03-14T05:38:08.927Z,75.96
2018-03-14T05:40:01.909Z,77.20
2018-03-14T05:41:01.960Z,77.20
2018-03-14T05:42:54.969Z,76.73
2018-03-14T05:43:55.007Z,76.73
2018-03-14T05:45:47.984Z,77.45
2018-03-14T05:46:48.040Z,77.58
2018-03-14T05:48:41.557Z,77.35
2018-03-14T05:49:41.591Z,77.45
2018-03-14T05:51:34.566Z,77.35
2018-03-14T05:52:34.624Z,77.35
2018-03-14T05:54:27.620Z,77.54
2018-03-14T05:55:27.656Z,77.45
2018-03-14T05:57:20.639Z,76.87
2018-03-14T05:58:20.697Z,76.87
2018-03-14T06:00:13.696Z,76.12
2018-03-14T06:01:13.734Z,75.93
2018-03-14T06:03:06.744Z,75.07
2018-03-14T06:04:06.766Z,74.79
2018-03-14T06:05:59.742Z,74.22
2018-03-14T06:06:59.799Z,73.75
2018-03-14T06:08:52.794Z,73.75
2018-03-14T06:09:52.830Z,74.26
2018-03-14T06:11:45.808Z,74.64
2018-03-14T06:12:45.864Z,75.49
2018-03-14T06:14:38.868Z,76.25
2018-03-14T06:15:38.905Z,76.54
2018-03-14T06:17:31.892Z,76.92
2018-03-14T06:18:31.949Z,77.67
2018-03-14T06:20:24.945Z,78.72
2018-03-14T06:21:24.982Z,79.00
2018-03-14T06:23:17.960Z,79.66
2018-03-14T06:24:18.017Z,79.57
2018-03-14T06:26:11.015Z,80.14
2018-03-14T06:27:11.051Z,80.24
2018-03-14T06:29:04.061Z,80.33
2018-03-14T06:30:04.095Z,80.14
2018-03-14T06:31:57.076Z,80.62
2018-03-14T06:32:57.128Z,80.43
2018-03-14T06:34:50.124Z,80.14
2018-03-14T06:35:50.159Z,80.43
2018-03-14T06:37:43.139Z,80.90
2018-03-14T06:38:43.193Z,80.99
2018-03-14T06:40:36.194Z,81.47
2018-03-14T06:41:36.228Z,81.37
2018-03-14T06:43:29.212Z,81.47
2018-03-14T06:44:29.268Z,81.32
2018-03-14T06:46:22.268Z,81.75
2018-03-14T06:47:22.304Z,82.55
2018-03-14T06:49:15.282Z,82.27
2018-03-14T06:50:15.339Z,82.46
2018-03-14T06:52:08.342Z,82.27
2018-03-14T06:53:08.380Z,82.46
2018-03-14T06:55:01.388Z,83.12
2018-03-14T06:56:01.412Z,83.12
2018-03-14T06:57:54.392Z,82.93
2018-03-14T06:58:54.448Z,82.74
2018-03-14T07:00:47.445Z,83.40
2018-03-14T07:01:47.482Z,83.40
2018-03-14T07:03:40.458Z,83.78
2018-03-14T07:04:40.514Z,83.22
2018-03-14T07:06:33.513Z,83.88
2018-03-14T07:07:33.552Z,84.26
2018-03-14T07:09:26.534Z,83.97
2018-03-14T07:10:26.585Z,83.97
2018-03-14T07:12:19.583Z,84.36
2018-03-14T07:13:19.620Z,84.64
2018-03-14T07:15:12.597Z,84.26
2018-03-14T07:16:12.654Z,83.78
2018-03-14T07:18:05.651Z,83.03
2018-03-14T07:19:05.690Z,83.22
2018-03-14T07:20:59.208Z,82.93
2018-03-14T07:21:59.237Z,83.69
2018-03-14T07:23:52.229Z,83.97
2018-03-14T07:24:52.283Z,84.83
2018-03-14T07:26:45.293Z,84.92
2018-03-14T07:27:45.329Z,85.63
2018-03-14T07:29:38.349Z,86.39
2018-03-14T07:30:38.371Z,87.82
2018-03-14T07:32:31.371Z,88.10
2018-03-14T07:33:31.407Z,88.01
2018-03-14T07:35:24.395Z,88.48
2018-03-14T07:36:24.501Z,88.95
2018-03-14T07:38:17.463Z,89.05
2018-03-14T07:39:17.502Z,89.62
2018-03-14T07:41:10.485Z,90.47
2018-03-14T07:42:10.544Z,90.57
2018-03-14T07:44:03.544Z,89.62
2018-03-14T07:45:03.582Z,90.19
2018-03-14T07:46:56.571Z,90.19
2018-03-14T07:47:56.630Z,91.14
2018-03-14T07:49:49.627Z,91.38
2018-03-14T07:50:49.663Z,91.75
2018-03-14T07:52:42.717Z,91.94
2018-03-14T07:53:42.702Z,93.46
2018-03-14T07:55:35.682Z,93.56
2018-03-14T07:56:35.739Z,92.71
2018-03-14T07:58:28.748Z,93.37
2018-03-14T07:59:28.788Z,92.46
2018-03-14T08:01:21.768Z,94.08
2018-03-14T08:02:21.827Z,93.89
2018-03-14T08:04:14.838Z,94.08
2018-03-14T08:05:14.877Z,93.89
2018-03-14T08:07:07.868Z,94.84
2018-03-14T08:08:07.925Z,96.17
2018-03-14T08:10:00.931Z,94.46
2018-03-14T08:11:00.970Z,95.51
2018-03-14T08:12:53.949Z,95.70
2018-03-14T08:13:54.138Z,94.65
2018-03-14T08:15:47.018Z,94.65
2018-03-14T08:16:47.056Z,92.27
2018-03-14T08:18:40.035Z,92.94
2018-03-14T08:19:40.098Z,93.70
2018-03-14T08:21:33.610Z,95.70
2018-03-14T08:22:33.648Z,94.84
2018-03-14T08:24:26.667Z,93.70
2018-03-14T08:25:26.700Z,93.04
2018-03-14T08:27:19.681Z,93.41
2018-03-14T08:28:19.739Z,92.94
2018-03-14T08:30:12.740Z,92.18
2018-03-14T08:31:12.779Z,92.94
2018-03-14T08:33:05.767Z,95.89
2018-03-14T08:34:05.827Z,94.56
2018-03-14T08:35:58.829Z,95.89
2018-03-14T08:36:58.867Z,95.22
2018-03-14T08:38:51.852Z,95.98
2018-03-14T08:39:51.913Z,94.56
2018-03-14T08:41:44.922Z,94.37
2018-03-14T08:42:44.961Z,94.70
2018-03-14T08:44:37.946Z,95.56
2018-03-14T08:45:38.005Z,96.41
2018-03-14T08:47:31.012Z,95.84
2018-03-14T08:48:31.050Z,95.65
2018-03-14T08:50:24.094Z,95.36
2018-03-14T08:51:24.095Z,95.84
2018-03-14T08:53:17.102Z,95.94
2018-03-14T08:54:17.193Z,95.94
2018-03-14T08:56:10.145Z,96.65
2018-03-14T08:57:10.184Z,97.03
2018-03-14T08:59:03.168Z,96.74
2018-03-14T09:00:03.227Z,96.65
2018-03-14T09:01:56.230Z,96.94
2018-03-14T09:02:56.266Z,97.22
2018-03-14T09:04:49.262Z,96.17
2018-03-14T09:05:49.321Z,95.41
2018-03-14T09:07:42.325Z,97.08
2018-03-14T09:08:42.364Z,96.12
2018-03-14T09:10:35.351Z,96.22
2018-03-14T09:11:35.412Z,94.56
2018-03-14T09:13:28.414Z,96.26
2018-03-14T09:14:28.453Z,96.08
2018-03-14T09:16:21.446Z,95.79
2018-03-14T09:17:21.505Z,94.56
2018-03-14T09:19:14.515Z,97.13
2018-03-14T09:20:14.554Z,93.74
2018-03-14T09:22:07.576Z,96.65
2018-03-14T09:23:07.594Z,95.98
2018-03-14T09:25:00.587Z,95.36
2018-03-14T09:26:00.644Z,97.41
2018-03-14T09:27:53.646Z,95.17
2018-03-14T09:28:53.684Z,96.31
2018-03-14T09:30:46.675Z,96.70
2018-03-14T09:31:46.805Z,97.74
2018-03-14T09:33:39.732Z,94.84
2018-03-14T09:34:39.771Z,95.41
2018-03-14T09:36:32.761Z,94.60
2018-03-14T09:37:32.821Z,96.22
2018-03-14T09:39:25.834Z,96.98
2018-03-14T09:40:25.871Z,94.03
2018-03-14T09:42:18.865Z,94.74
2018-03-14T09:43:18.926Z,94.27
2018-03-14T09:45:11.939Z,94.13
2018-03-14T09:46:11.969Z,94.08
2018-03-14T09:48:05.017Z,93.32
2018-03-14T09:49:05.044Z,94.65
2018-03-14T09:50:58.034Z,94.27
2018-03-14T09:51:58.094Z,94.27
2018-03-14T09:53:51.099Z,93.74
2018-03-14T09:54:51.141Z,92.89
2018-03-14T09:56:44.123Z,93.93
2018-03-14T09:57:44.184Z,93.79
2018-03-14T09:59:37.187Z,92.36
2018-03-14T10:00:37.226Z,90.60
2018-03-14T10:02:30.220Z,88.98
2018-03-14T10:03:30.282Z,89.46
2018-03-14T10:05:23.294Z,90.93
2018-03-14T10:06:23.334Z,90.17
2018-03-14T10:08:16.334Z,88.45
2018-03-14T10:09:16.391Z,87.21
2018-03-14T10:11:09.400Z,84.22
2018-03-14T10:12:09.438Z,84.22
2018-03-14T10:14:02.457Z,85.74
2018-03-14T10:15:02.494Z,86.79
2018-03-14T10:16:55.488Z,87.41
2018-03-14T10:17:55.548Z,86.55
2018-03-14T10:19:48.557Z,81.98
2018-03-14T10:20:48.597Z,85.51
2018-03-14T10:22:41.591Z,83.09
2018-03-14T10:23:41.650Z,85.75
2018-03-14T10:25:34.730Z,89.47
2018-03-14T10:26:34.694Z,88.60
2018-03-14T10:28:27.685Z,88.60
2018-03-14T10:29:27.744Z,89.75
2018-03-14T10:31:20.758Z,89.94
2018-03-14T10:32:20.798Z,88.42
2018-03-14T10:34:13.782Z,89.84
2018-03-14T10:35:13.846Z,87.94
2018-03-14T10:37:06.847Z,88.79
2018-03-14T10:38:06.888Z,89.47
2018-03-14T10:39:59.885Z,87.56
2018-03-14T10:40:59.941Z,86.32
2018-03-14T10:42:52.956Z,88.51
2018-03-14T10:43:52.994Z,89.18
2018-03-14T10:45:45.980Z,89.08
2018-03-14T10:46:46.036Z,89.94
2018-03-14T10:48:39.049Z,89.27
2018-03-14T10:49:39.109Z,89.08
2018-03-14T10:51:32.096Z,88.79
2018-03-14T10:52:32.138Z,89.51
2018-03-14T10:54:25.122Z,89.70
2018-03-14T10:55:25.180Z,87.51
2018-03-14T10:57:18.183Z,88.27
2018-03-14T10:58:18.223Z,87.23
2018-03-14T11:00:11.215Z,86.27
2018-03-14T11:01:11.276Z,85.32
2018-03-14T11:03:04.284Z,85.22
2018-03-14T11:04:04.324Z,85.80
2018-03-14T11:05:57.315Z,88.60
2018-03-14T11:06:57.375Z,89.03
2018-03-14T11:08:50.378Z,88.65
2018-03-14T11:09:50.417Z,88.37
2018-03-14T11:11:43.398Z,87.79
2018-03-14T11:12:43.459Z,87.03
2018-03-14T11:14:36.467Z,85.60
2018-03-14T11:15:36.554Z,83.70
2018-03-14T11:17:29.499Z,83.07
2018-03-14T11:18:29.560Z,85.27
2018-03-14T11:20:22.615Z,84.64
2018-03-14T11:21:22.606Z,82.64
2018-03-14T11:23:15.618Z,79.30
2018-03-14T11:24:15.658Z,83.97
2018-03-14T11:26:08.641Z,83.73
2018-03-14T11:27:08.702Z,84.20
2018-03-14T11:29:01.705Z,78.67
2018-03-14T11:30:01.744Z,78.58
2018-03-14T11:31:54.736Z,78.77
2018-03-14T11:32:54.796Z,76.77
2018-03-14T11:34:47.805Z,79.35
2018-03-14T11:35:47.844Z,77.82
2018-03-14T11:37:40.834Z,74.77
2018-03-14T11:38:40.896Z,73.96
2018-03-14T11:40:33.910Z,74.88
2018-03-14T11:41:33.952Z,78.78
2018-03-14T11:43:26.966Z,76.79
2018-03-14T11:44:27.008Z,79.27
2018-03-14T11:46:19.993Z,82.35
2018-03-14T11:47:20.046Z,79.40
2018-03-14T11:49:13.057Z,76.73
2018-03-14T11:50:13.100Z,76.64
2018-03-14T11:52:06.092Z,77.01
2018-03-14T11:53:06.156Z,75.87
2018-03-14T11:54:59.166Z,76.10
2018-03-14T11:55:59.210Z,78.58
2018-03-14T11:57:52.199Z,77.06
2018-03-14T11:58:52.261Z,73.52
2018-03-14T12:00:45.275Z,72.28
2018-03-14T12:01:45.316Z,73.72
2018-03-14T12:03:38.301Z,73.05
2018-03-14T12:04:38.362Z,71.62
2018-03-14T12:06:31.370Z,70.67
2018-03-14T12:07:31.411Z,71.23
2018-03-14T12:09:24.426Z,70.86
2018-03-14T12:10:24.464Z,71.52
2018-03-14T12:12:17.489Z,73.91
2018-03-14T12:13:17.513Z,72.44
2018-03-14T12:15:10.519Z,74.44
2018-03-14T12:16:10.560Z,73.49
2018-03-14T12:18:03.549Z,73.01
2018-03-14T12:19:03.607Z,71.87
2018-03-14T12:20:56.678Z,73.11
2018-03-14T12:21:56.660Z,72.41
2018-03-14T12:23:49.649Z,75.93
2018-03-14T12:24:49.710Z,81.46
2018-03-14T12:26:42.714Z,80.50
2018-03-14T12:27:42.755Z,75.78
2018-03-14T12:29:35.746Z,75.96
2018-03-14T12:30:35.808Z,75.96
2018-03-14T12:32:28.821Z,75.68
2018-03-14T12:33:28.888Z,77.69
2018-03-14T12:35:21.859Z,72.96
2018-03-14T12:36:21.922Z,71.30
2018-03-14T12:38:14.928Z,72.63
2018-03-14T12:39:14.968Z,73.14
2018-03-14T12:41:07.995Z,72.25
2018-03-14T12:42:08.024Z,73.77
2018-03-14T12:44:01.018Z,72.25
2018-03-14T12:45:01.081Z,72.53
2018-03-14T12:46:54.095Z,72.25
2018-03-14T12:47:54.135Z,72.72
2018-03-14T12:49:47.125Z,71.58
2018-03-14T12:50:47.184Z,71.87
2018-03-14T12:52:40.197Z,72.16
2018-03-14T12:53:40.237Z,72.63
2018-03-14T12:55:33.226Z,72.16
2018-03-14T12:56:33.284Z,72.25
2018-03-14T12:58:26.295Z,71.87
2018-03-14T12:59:26.344Z,72.25
2018-03-14T13:01:19.324Z,72.16
2018-03-14T13:02:19.385Z,74.02
2018-03-14T13:04:12.404Z,79.41
2018-03-14T13:05:12.440Z,80.18
2018-03-14T13:07:05.459Z,80.31
2018-03-14T13:08:05.488Z,81.65
2018-03-14T13:09:58.480Z,81.26
2018-03-14T13:10:58.530Z,82.03
2018-03-14T13:12:51.536Z,82.50
2018-03-14T13:13:51.574Z,78.69
2018-03-14T13:15:44.558Z,80.27
2018-03-14T13:16:44.619Z,82.37
2018-03-14T13:18:37.624Z,83.28
2018-03-14T13:19:37.664Z,84.23
2018-03-14T13:21:31.163Z,84.61
2018-03-14T13:22:31.219Z,84.52
2018-03-14T13:24:24.232Z,84.04
2018-03-14T13:25:24.273Z,85.47
2018-03-14T13:27:17.263Z,85.08
2018-03-14T13:28:17.324Z,85.66
2018-03-14T13:30:10.330Z,84.65
2018-03-14T13:31:10.380Z,83.32
2018-03-14T13:33:03.356Z,81.51
2018-03-14T13:34:03.418Z,81.51
2018-03-14T13:35:56.414Z,82.27
2018-03-14T13:36:56.453Z,82.18
2018-03-14T13:38:49.450Z,80.36
2018-03-14T13:39:49.505Z,81.41
2018-03-14T13:41:42.508Z,81.89
2018-03-14T13:42:42.543Z,81.89
2018-03-14T13:44:35.549Z,82.75
2018-03-14T13:45:35.587Z,81.60
2018-03-14T13:47:28.588Z,82.84
2018-03-14T13:48:28.632Z,83.22
2018-03-14T13:50:21.657Z,83.22
2018-03-14T13:51:21.688Z,84.36
2018-03-14T13:53:14.704Z,84.27
2018-03-14T13:54:14.765Z,85.03
2018-03-14T13:56:07.765Z,85.22
2018-03-14T13:57:07.804Z,85.70
2018-03-14T13:59:00.851Z,85.70
2018-03-14T14:00:00.856Z,86.27
2018-03-14T14:01:53.858Z,84.94
2018-03-14T14:02:53.894Z,83.89
2018-03-14T14:04:46.878Z,84.75
2018-03-14T14:05:46.934Z,85.60
2018-03-14T14:07:39.949Z,86.18
2018-03-14T14:08:39.986Z,85.99
2018-03-14T14:10:32.993Z,84.94
2018-03-14T14:11:33.034Z,83.26
2018-03-14T14:13:26.051Z,81.88
2018-03-14T14:14:26.107Z,81.02
2018-03-14T14:16:19.123Z,77.62
2018-03-14T14:17:19.159Z,75.72
2018-03-14T14:19:12.156Z,72.76
2018-03-14T14:20:12.218Z,73.08
2018-03-14T14:22:05.744Z,70.98
2018-03-14T14:23:05.782Z,70.98
2018-03-14T14:24:58.799Z,66.95
2018-03-14T14:25:58.830Z,65.90
2018-03-14T14:27:51.841Z,65.87
2018-03-14T14:28:51.882Z,67.21
2018-03-14T14:30:44.871Z,67.14
2018-03-14T14:31:44.931Z,70.38
2018-03-14T14:33:37.937Z,74.44
2018-03-14T14:34:37.978Z,77.74
2018-03-14T14:36:30.993Z,78.41
2018-03-14T14:37:31.040Z,76.50
2018-03-14T14:39:24.023Z,77.13
2018-03-14T14:40:24.084Z,77.80
2018-03-14T14:42:17.090Z,78.56
2018-03-14T14:43:17.129Z,79.51
2018-03-14T14:45:10.129Z,79.27
2018-03-14T14:46:10.188Z,80.88
2018-03-14T14:48:03.228Z,80.27
2018-03-14T14:49:03.238Z,81.89
2018-03-14T14:50:56.229Z,80.84
2018-03-14T14:51:56.287Z,81.51
2018-03-14T14:53:49.804Z,83.03
2018-03-14T14:54:49.844Z,84.08
2018-03-14T14:56:42.830Z,83.94
2018-03-14T14:57:42.890Z,84.65
2018-03-14T14:59:35.902Z,84.70
2018-03-14T15:00:35.944Z,84.84
2018-03-14T15:02:28.924Z,86.65
2018-03-14T15:03:28.991Z,85.99
2018-03-14T15:05:21.999Z,84.65
2018-03-14T15:06:22.089Z,86.08
2018-03-14T15:08:15.041Z,84.84
2018-03-14T15:09:15.079Z,83.80
2018-03-14T15:11:08.069Z,84.36
2018-03-14T15:12:08.129Z,83.70
2018-03-14T15:14:01.130Z,83.18
2018-03-14T15:15:01.169Z,85.08
2018-03-14T15:16:54.161Z,84.13
2018-03-14T15:17:54.219Z,84.52
2018-03-14T15:19:47.736Z,85.56
2018-03-14T15:20:47.260Z,84.52
2018-03-14T15:22:40.243Z,85.08
2018-03-14T15:23:40.301Z,85.94
2018-03-14T15:25:33.347Z,85.56
2018-03-14T15:26:33.343Z,84.89
2018-03-14T15:28:26.325Z,84.13
2018-03-14T15:29:26.384Z,84.23
2018-03-14T15:31:19.384Z,86.13
2018-03-14T15:32:19.426Z,86.90
2018-03-14T15:34:12.467Z,86.99
2018-03-14T15:35:12.471Z,84.99
2018-03-14T15:37:05.458Z,85.08
2018-03-14T15:38:05.513Z,85.37
2018-03-14T15:39:58.521Z,86.61
2018-03-14T15:40:58.555Z,86.13
2018-03-14T15:42:51.539Z,87.08
2018-03-14T15:43:51.598Z,87.85
2018-03-14T15:45:44.596Z,87.56
2018-03-14T15:46:44.634Z,87.27
2018-03-14T15:48:37.623Z,87.75
2018-03-14T15:49:37.683Z,87.94
2018-03-14T15:51:30.689Z,87.56
2018-03-14T15:52:30.729Z,87.85
2018-03-14T15:54:23.716Z,87.56
2018-03-14T15:55:23.774Z,87.56
2018-03-14T15:57:16.790Z,87.56
2018-03-14T15:58:16.819Z,87.90
2018-03-14T16:00:09.822Z,88.37
2018-03-14T16:01:09.861Z,88.51
2018-03-14T16:03:02.842Z,87.90
2018-03-14T16:04:02.900Z,87.85
2018-03-14T16:05:55.912Z,87.80
2018-03-14T16:06:55.948Z,88.37
2018-03-14T16:08:48.930Z,88.75
2018-03-14T16:09:48.996Z,89.14
2018-03-14T16:11:41.992Z,88.85
2018-03-14T16:12:42.030Z,88.70
2018-03-14T16:14:35.015Z,88.56
2018-03-14T16:15:35.074Z,89.18
2018-03-14T16:17:28.075Z,88.79
2018-03-14T16:18:28.114Z,88.28
2018-03-14T16:20:21.098Z,88.56
2018-03-14T16:21:21.177Z,88.46
2018-03-14T16:23:14.157Z,88.18
2018-03-14T16:24:14.196Z,88.94
2018-03-14T16:26:07.201Z,88.46
2018-03-14T16:27:07.241Z,88.56
2018-03-14T16:29:00.222Z,89.23
2018-03-14T16:30:00.284Z,89.51
2018-03-14T16:31:53.294Z,89.32
2018-03-14T16:32:53.318Z,89.80
2018-03-14T16:34:46.298Z,90.18
2018-03-14T16:35:46.357Z,89.80
2018-03-14T16:37:39.359Z,89.89
2018-03-14T16:38:39.407Z,90.47
2018-03-14T16:40:32.376Z,89.80
2018-03-14T16:41:32.434Z,89.42
2018-03-14T16:43:25.433Z,90.28
2018-03-14T16:44:25.494Z,89.99
2018-03-14T16:46:18.459Z,90.18
2018-03-14T16:47:18.511Z,90.75
2018-03-14T16:49:11.512Z,91.03
2018-03-14T16:50:11.576Z,91.61
2018-03-14T16:52:04.558Z,91.03
2018-03-14T16:53:04.634Z,90.84
2018-03-14T16:54:57.616Z,91.03
2018-03-14T16:55:57.670Z,90.84
2018-03-14T16:57:50.692Z,91.18
2018-03-14T16:58:50.680Z,91.37
2018-03-14T17:00:43.671Z,91.66
2018-03-14T17:01:43.717Z,91.56
2018-03-14T17:03:36.714Z,92.13
2018-03-14T17:04:36.754Z,91.66
2018-03-14T17:06:29.730Z,92.41
2018-03-14T17:07:29.791Z,92.51
2018-03-14T17:09:22.795Z,92.80
2018-03-14T17:10:22.835Z,92.22
2018-03-14T17:12:15.813Z,92.51
2018-03-14T17:13:15.872Z,93.18
2018-03-14T17:15:08.877Z,92.89
2018-03-14T17:16:08.917Z,93.18
2018-03-14T17:18:01.909Z,93.18
2018-03-14T17:19:01.947Z,93.46
2018-03-14T17:20:55.428Z,93.55
2018-03-14T17:21:55.487Z,93.84
2018-03-14T17:23:48.493Z,93.60
2018-03-14T17:24:48.556Z,94.03
2018-03-14T17:26:41.518Z,93.70
2018-03-14T17:27:41.572Z,93.70
2018-03-14T17:29:34.575Z,94.08
2018-03-14T17:30:34.661Z,94.08
2018-03-14T17:32:27.597Z,93.89
2018-03-14T17:33:27.657Z,94.56
2018-03-14T17:35:20.658Z,93.99
2018-03-14T17:36:20.698Z,94.37
2018-03-14T17:38:13.676Z,94.27
2018-03-14T17:39:13.732Z,94.93
2018-03-14T17:41:07.256Z,94.93
2018-03-14T17:42:07.291Z,94.93
2018-03-14T17:44:00.272Z,94.93
2018-03-14T17:45:00.326Z,94.84
2018-03-14T17:46:53.328Z,94.84
2018-03-14T17:47:53.366Z,95.51
2018-03-14T17:49:46.343Z,95.12
2018-03-14T17:50:46.408Z,95.51
2018-03-14T17:52:39.399Z,95.51
2018-03-14T17:53:39.436Z,95.70
2018-03-14T17:55:32.435Z,95.55
2018-03-14T17:56:32.473Z,95.84
2018-03-14T17:58:25.451Z,95.84
2018-03-14T17:59:25.512Z,95.55
2018-03-14T18:01:18.505Z,95.55
2018-03-14T18:02:18.543Z,95.55
2018-03-14T18:04:11.533Z,95.65
2018-03-14T18:05:11.583Z,95.46
2018-03-14T18:07:04.580Z,95.65
2018-03-14T18:08:04.618Z,96.41
2018-03-14T18:09:57.602Z,96.22
2018-03-14T18:10:57.653Z,96.50
2018-03-14T18:12:50.650Z,96.12
2018-03-14T18:13:50.691Z,96.41
2018-03-14T18:15:43.668Z,96.60
2018-03-14T18:16:43.724Z,95.84
2018-03-14T18:18:36.722Z,96.60
2018-03-14T18:19:36.759Z,96.50
2018-03-14T18:21:29.736Z,96.22
2018-03-14T18:22:29.794Z,96.45
2018-03-14T18:24:22.792Z,96.83
2018-03-14T18:25:22.831Z,96.26
2018-03-14T18:27:15.833Z,96.83
2018-03-14T18:28:15.869Z,96.83
2018-03-14T18:30:08.849Z,96.74
2018-03-14T18:31:08.909Z,97.02
2018-03-14T18:33:01.905Z,96.93
2018-03-14T18:34:01.941Z,96.64